Saint Mary, Montana
Current Conditions -  °F | °C
As of 8:56 AM on Saturday 20 Dec 2014 (Local Time) from KCTB Reporting Station
Clear Clear  
Wind Chill: -6°   Ceiling: Unl
Heat Index:   Visibility: 10mi
Dew Point: -6°   Wind: 21mph
Humidity: 64%   Direction: 260°W
Pressure: 29.8"   Gusts: NA
Location:  48.5484°N, 112.952°W
Report Text: KCTB 201556Z AUTO 26018KT 10SM CLR 01/M06 A2980 RMK AO2 SLP112 T00061056
Loading
Personal Weather Stations






























Interactive Weather Map New forecast layout! Learn more

10-Day Weather Forecast

Advertisements
Track Severe Weather on mobile